Disclaimer

Please do not use the information listed here in-flight or in-navigation, as they are not provided to us by the airports but are provided by volunteers, so they might be outdated.

Search


Regions


Airport information page

Radio informations:
Tower (TWR) - 118.1 MHz
Ground (GND) - 121.9 MHz
FSS - 122.0 MHz
SANTO DOMINGO IN - 126.9 MHz
Automatic Terminal Information Service (ATIS) - 126.2 MHz
Approach (APP) - 119.3 MHz

Airport informations:
Latitude: 18° 25' 46.79" N
Longitude: 069° 40' 08.13" W
Elevation: 59 feet - 18 meters
Operating hours: N/A
Operating agency: Civil government, landing fees and diplomatic clearance may be required
Timezone: UTC-4
Fuel: N/A

Runway information:
17/35 - 11000 x 200 feet< - >3353 x 61 meters

Recent METARs:
MDSD 191700Z 16005KT 9999 SCT022 31/22 Q1014 NOSIG
MDSD 191800Z 15008KT 9999 SCT022 31/23 Q1014 NOSIG
MDSD 191800Z 15008KT 9999 SCT022 31/23 Q1014 NOSIG

Airport on the map: